map of CWA home
CWA - Airport
Location
City:  Mosinee, Wisconsin, United States
Name:Central Wisconsin Airport
ICAO:KCWA
IATA:CWA
FAA LID:CWA

Details
Type:Airport (Part 139 Class I)
Use:Public/Civil
Latitude:4446'39"N (44.777624)
Longitude:8940'00"W (-89.666777)
Datum:WGS 1984
Elevation:1277 ft (389 m)
Variation:2.78W (WMM2015 magnetic declination)
-0.05 annual change
Runways:2
Longest:7648 × 150 ft (2331 × 45.5 m), paved

Time
Time Zone:UTC-6 (DST-5)
Local Time:

Weather
METAR:KCWA 182153Z 02009KT 10SM BKN022 BKN029 23/18 A3000
TAF:KCWA 181732Z 1818/1918 02008KT P6SM SCT008 BKN015
FM182100 02007KT P6SM BKN025
FM182300 04007KT P6SM BKN035
FM190000 07006KT P6SM BKN080

Related Locations
Nearby:
Farthest:YAUG: 10939 mi / 17604 km
Augusta [Augusta Airport], WA, AU

Find:

   beyond  
but within

Other Information
Maps:
Delays:
NOTAMs:
Links:
Sources:

  
  • flag of United States
  • flag of Wisconsin
  

Airport Diagram

Airport diagram for CWA

Airport diagram PDF

Sectional Chart

Flight Planning
at skyvector.com

Satellite Image

Google Maps Satellite view

 

Copyright © 2004-2018 Karl L. Swartz. All rights reserved.
The Great Circle Mapper name and logo are trademarks of the Great Circle Mapper.
All other trademarks mentioned herein belong to their respective owners.
Please see credits for attibutions and further copyright information.

  Follow gcmap on Facebook Follow gcmap on Twitter Follow gcmap on Google+ GCmap on LinkedIn

hCard Microformat

Geo Microformat